This is the latest recevied weather packets stored in our database for station/object OK3FM-14. If no packets are shown the sender has not sent any weather packets the latest 10 day(s).
| Time | Temp. | Humidity | Pressure | Rain* | Wind** | Luminosity | Snow |
|---|---|---|---|---|---|---|---|
| 1787815643 | 19.44° C | 61% | 1020.7 hPa | - | - | - | - |
| 1787815043 | 20° C | 60% | 1020.8 hPa | - | - | - | - |
| 1787814443 | 18.33° C | 65% | 1020.8 hPa | - | - | - | - |
| 1787813843 | 17.22° C | 69% | 1020.7 hPa | - | - | - | - |
| 1787813243 | 16.67° C | 70% | 1020.6 hPa | - | - | - | - |
| 1787812643 | 17.22° C | 67% | 1020.8 hPa | - | - | - | - |
| 1787812043 | 18.33° C | 64% | 1020.7 hPa | - | - | - | - |
| 1787811443 | 19.44° C | 61% | 1020.7 hPa | - | - | - | - |
| 1787810843 | 17.22° C | 69% | 1020.7 hPa | - | - | - | - |
| 1787810243 | 16.67° C | 70% | 1020.8 hPa | - | - | - | - |
| 1787809643 | 15.56° C | 74% | 1020.8 hPa | - | - | - | - |
| 1787809043 | 13.89° C | 83% | 1020.8 hPa | - | - | - | - |
| 1787808443 | 12.78° C | 89% | 1020.9 hPa | - | - | - | - |
| 1787807843 | 12.22° C | 89% | 1020.9 hPa | - | - | - | - |
| 1787807243 | 12.22° C | 88% | 1020.8 hPa | - | - | - | - |
| 1787806643 | 12.22° C | 88% | 1020.8 hPa | - | - | - | - |
| 1787806043 | 11.67° C | 91% | 1020.7 hPa | - | - | - | - |
| 1787805443 | 11.67° C | 92% | 1020.8 hPa | - | - | - | - |
| 1787804843 | 11.67° C | 93% | 1020.7 hPa | - | - | - | - |
| 1787804243 | 11.11° C | 93% | 1020.6 hPa | - | - | - | - |
| 1787803643 | 11.11° C | 94% | 1020.7 hPa | - | - | - | - |
| 1787803043 | 11.11° C | 93% | 1020.7 hPa | - | - | - | - |
| 1787802443 | 11.11° C | 94% | 1020.7 hPa | - | - | - | - |
| 1787801843 | 11.11° C | 94% | 1020.8 hPa | - | - | - | - |
| 1787801243 | 11.11° C | 94% | 1020.7 hPa | - | - | - | - |
* Rain since midnight (hover to see other rain measurements)
** Current wind speed in m/s (hover to see current wind gust speed)